createdAt,value
2018-05-06T00:02:24.570Z,92.2
2018-05-06T00:07:24.709Z,93
2018-05-06T00:12:24.748Z,93.3
2018-05-06T00:17:24.589Z,93.3
2018-05-06T00:22:24.953Z,94.3
2018-05-06T00:27:24.677Z,93.4
2018-05-06T00:32:37.568Z,93.9
2018-05-06T00:37:37.521Z,94.1
2018-05-06T00:42:37.289Z,93.7
2018-05-06T00:47:37.470Z,94.2
2018-05-06T00:52:37.516Z,95.2
2018-05-06T00:57:37.304Z,95.8
2018-05-06T01:02:37.483Z,95
2018-05-06T01:07:40.816Z,95
2018-05-06T01:12:40.724Z,96.4
2018-05-06T01:17:53.164Z,95.5
2018-05-06T01:22:52.907Z,94.2
2018-05-06T01:27:53.105Z,92
2018-05-06T01:32:53.063Z,89.8
2018-05-06T01:37:53.300Z,74.6
2018-05-06T01:42:53.081Z,70.7
2018-05-06T01:47:53.239Z,71.7
2018-05-06T01:52:53.274Z,74.4
2018-05-06T01:57:53.192Z,76.2
2018-05-06T02:02:53.245Z,73.5
2018-05-06T02:07:53.298Z,74.3
2018-05-06T02:12:55.934Z,74.6
2018-05-06T02:17:55.069Z,74.5
2018-05-06T02:22:54.724Z,68.3
2018-05-06T02:28:07.541Z,70.2
2018-05-06T02:33:07.355Z,69.4
2018-05-06T02:38:07.427Z,66.5
2018-05-06T02:43:07.479Z,69.9
2018-05-06T02:48:07.285Z,67.6
2018-05-06T02:53:07.286Z,66.4
2018-05-06T02:58:07.440Z,67
2018-05-06T03:03:09.101Z,68.5
2018-05-06T03:08:08.833Z,65.1
2018-05-06T03:13:21.601Z,65.8
2018-05-06T03:18:21.296Z,66.3
2018-05-06T03:23:21.444Z,67.6
2018-05-06T03:28:21.453Z,65.5
2018-05-06T03:33:21.508Z,65
2018-05-06T03:38:22.469Z,64.9
2018-05-06T03:43:22.400Z,65.2
2018-05-06T03:48:22.319Z,65.8
2018-05-06T03:53:22.336Z,65.4
2018-05-06T03:58:22.412Z,66.4
2018-05-06T04:03:22.226Z,65.9
2018-05-06T04:08:22.360Z,66.1
2018-05-06T04:13:23.851Z,65.8
2018-05-06T04:18:23.764Z,66.6
2018-05-06T04:23:35.869Z,66.9
2018-05-06T04:28:35.813Z,67.8
2018-05-06T04:33:35.699Z,68.5
2018-05-06T04:38:35.779Z,69.1
2018-05-06T04:43:35.823Z,68.2
2018-05-06T04:48:35.617Z,67.6
2018-05-06T04:53:35.610Z,67.6
2018-05-06T04:58:39.765Z,64.4
2018-05-06T05:03:39.633Z,64.7
2018-05-06T05:08:50.727Z,61.9
2018-05-06T05:13:50.676Z,62
2018-05-06T05:18:50.592Z,60.8
2018-05-06T05:23:50.480Z,61.2
2018-05-06T05:28:50.676Z,60.8
2018-05-06T05:33:51.732Z,59.3
2018-05-06T05:38:51.508Z,58.9
2018-05-06T05:43:51.561Z,59
2018-05-06T05:48:51.469Z,55.5
2018-05-06T05:53:51.445Z,56.4
2018-05-06T05:58:51.464Z,55
2018-05-06T06:03:51.568Z,54.7
2018-05-06T06:08:54.851Z,54.4
2018-05-06T06:13:54.772Z,54.2
2018-05-06T06:19:07.263Z,55.1
2018-05-06T06:24:07.020Z,53.5
2018-05-06T06:29:06.975Z,54.6
2018-05-06T06:34:07.190Z,52.8
2018-05-06T06:39:07.097Z,52.6
2018-05-06T06:44:07.150Z,49.9
2018-05-06T06:49:07.193Z,50.1
2018-05-06T06:54:09.124Z,48
2018-05-06T06:59:08.690Z,49
2018-05-06T07:04:20.909Z,47.4
2018-05-06T07:09:20.454Z,47.5
2018-05-06T07:14:20.482Z,44.3
2018-05-06T07:19:20.813Z,42.3
2018-05-06T07:24:20.626Z,42.6
2018-05-06T07:29:20.506Z,41.3
2018-05-06T07:34:20.504Z,42.1
2018-05-06T07:39:20.547Z,42.5
2018-05-06T07:44:20.532Z,41.9
2018-05-06T07:49:20.511Z,40.9
2018-05-06T07:54:20.501Z,40.7
2018-05-06T07:59:20.516Z,42
2018-05-06T08:04:22.657Z,41.2
2018-05-06T08:09:22.351Z,41.5
2018-05-06T08:14:35.746Z,41.3
2018-05-06T08:19:35.422Z,40.4
2018-05-06T08:24:35.547Z,40.4
2018-05-06T08:29:35.459Z,39.8
2018-05-06T08:34:35.903Z,40.5
2018-05-06T08:39:35.421Z,39.8
2018-05-06T08:44:35.493Z,38.8
2018-05-06T08:49:35.609Z,37.5
2018-05-06T08:54:35.622Z,39.2
2018-05-06T08:59:47.707Z,39.5
2018-05-06T09:04:47.399Z,36.7
2018-05-06T09:09:47.402Z,37.4
2018-05-06T09:14:47.765Z,37.7
2018-05-06T09:19:47.609Z,35.6
2018-05-06T09:24:47.494Z,36.4
2018-05-06T09:29:47.581Z,34.5
2018-05-06T09:34:47.637Z,32.6
2018-05-06T09:39:47.503Z,32.3
2018-05-06T09:44:47.547Z,31.9
2018-05-06T09:49:47.524Z,33.9
2018-05-06T09:54:47.514Z,33.3
2018-05-06T09:59:47.505Z,33.1
2018-05-06T10:04:47.533Z,32.5
2018-05-06T10:09:58.655Z,32.5
2018-05-06T10:14:58.306Z,32.4
2018-05-06T10:19:58.301Z,33.1
2018-05-06T10:24:58.277Z,33.4
2018-05-06T10:29:58.471Z,32.5
2018-05-06T10:34:58.348Z,32.7
2018-05-06T10:39:58.376Z,32.6
2018-05-06T10:44:58.319Z,34.5
2018-05-06T10:49:58.768Z,32.5
2018-05-06T10:55:11.533Z,33.4
2018-05-06T11:00:11.540Z,32.2
2018-05-06T11:05:11.255Z,33.2
2018-05-06T11:10:11.438Z,32.3
2018-05-06T11:15:11.455Z,32.4
2018-05-06T11:20:12.518Z,32.5
2018-05-06T11:25:12.228Z,32.9
2018-05-06T11:30:12.245Z,31
2018-05-06T11:35:12.281Z,31.2
2018-05-06T11:40:12.453Z,32
2018-05-06T11:45:12.457Z,31.8
2018-05-06T11:50:12.451Z,31.5
2018-05-06T11:55:15.617Z,31.1
2018-05-06T12:00:15.367Z,30
2018-05-06T12:05:28.385Z,32.9
2018-05-06T12:10:28.108Z,30
2018-05-06T12:15:28.100Z,31.1
2018-05-06T12:20:28.157Z,31.2
2018-05-06T12:25:29.783Z,30.4
2018-05-06T12:30:28.427Z,30.8
2018-05-06T12:35:28.370Z,30.5
2018-05-06T12:40:33.540Z,31.3
2018-05-06T12:45:33.492Z,30.5
2018-05-06T12:50:45.602Z,29.2
2018-05-06T12:55:45.528Z,30.9
2018-05-06T13:00:45.323Z,31.1
2018-05-06T13:05:45.324Z,31.5
2018-05-06T13:10:45.356Z,29.5
2018-05-06T13:15:45.366Z,30.3
2018-05-06T13:20:45.390Z,30.8
2018-05-06T13:25:45.369Z,31
2018-05-06T13:30:45.549Z,30.1
2018-05-06T13:35:45.376Z,29.7
2018-05-06T13:40:45.385Z,30.5
2018-05-06T13:45:45.642Z,30.3
2018-05-06T13:50:45.398Z,30.5
2018-05-06T13:55:45.378Z,30.5
2018-05-06T14:00:57.644Z,30.7
2018-05-06T14:05:57.340Z,30.1
2018-05-06T14:10:57.298Z,30.6
2018-05-06T14:15:57.559Z,29.4
2018-05-06T14:20:57.360Z,31.5
2018-05-06T14:25:57.362Z,31.1
2018-05-06T14:30:57.307Z,30.3
2018-05-06T14:35:59.859Z,30
2018-05-06T14:40:59.682Z,30.1
2018-05-06T14:46:11.973Z,31.6
2018-05-06T14:51:11.699Z,30.6
2018-05-06T14:56:11.725Z,31.5
2018-05-06T15:01:11.703Z,30.5
2018-05-06T15:06:11.910Z,30.9
2018-05-06T15:11:11.889Z,29.4
2018-05-06T15:16:11.958Z,30.8
2018-05-06T15:21:12.035Z,30.9
2018-05-06T15:26:12.101Z,31.1
2018-05-06T15:31:11.932Z,30.7
2018-05-06T15:36:11.942Z,30.5
2018-05-06T15:41:12.171Z,31.6
2018-05-06T15:46:15.354Z,32.3
2018-05-06T15:51:15.024Z,31.9
2018-05-06T15:56:28.651Z,33.3
2018-05-06T16:01:28.381Z,32.9
2018-05-06T16:06:28.419Z,32.6
2018-05-06T16:11:28.371Z,32.4
2018-05-06T16:16:28.361Z,33.3
2018-05-06T16:21:28.359Z,34.3
2018-05-06T16:26:28.366Z,35.2
2018-05-06T16:31:28.369Z,34.7
2018-05-06T16:36:28.358Z,34.9
2018-05-06T16:41:39.995Z,34.6
2018-05-06T16:46:39.663Z,34.8
2018-05-06T16:51:39.832Z,35
2018-05-06T16:56:39.906Z,35.2
2018-05-06T17:01:40.607Z,34.2
2018-05-06T17:06:41.286Z,34.6
2018-05-06T17:11:39.912Z,34.4
2018-05-06T17:16:39.975Z,35.4
2018-05-06T17:21:39.869Z,35.6
2018-05-06T17:26:39.898Z,35.8
2018-05-06T17:31:39.759Z,34.7
2018-05-06T17:36:39.858Z,35
2018-05-06T17:41:40.106Z,36
2018-05-06T17:46:40.069Z,36
2018-05-06T17:51:52.235Z,36.6
2018-05-06T17:56:51.985Z,36.4
2018-05-06T18:01:51.987Z,37.4
2018-05-06T18:06:51.997Z,37.6
2018-05-06T18:11:51.987Z,38.6
2018-05-06T18:16:51.954Z,38.5
2018-05-06T18:21:53.162Z,38.5
2018-05-06T18:26:52.000Z,39.3
2018-05-06T18:31:52.120Z,40.2
2018-05-06T18:37:05.039Z,40.8
2018-05-06T18:42:04.745Z,44.4
2018-05-06T18:47:04.934Z,46
2018-05-06T18:52:04.948Z,47.7
2018-05-06T18:57:04.883Z,47.6
2018-05-06T19:02:04.728Z,48
2018-05-06T19:07:04.754Z,47.3
2018-05-06T19:12:04.903Z,48.6
2018-05-06T19:17:04.886Z,49.6
2018-05-06T19:22:04.806Z,51
2018-05-06T19:27:04.762Z,52.5
2018-05-06T19:32:05.253Z,53.4
2018-05-06T19:37:08.174Z,52.8
2018-05-06T19:42:09.048Z,53.9
2018-05-06T19:47:22.277Z,54.6
2018-05-06T19:52:21.996Z,56.1
2018-05-06T19:57:21.980Z,57.1
2018-05-06T20:02:21.975Z,56.7
2018-05-06T20:07:22.324Z,58.4
2018-05-06T20:12:21.977Z,59.1
2018-05-06T20:17:21.965Z,60
2018-05-06T20:22:24.363Z,59.8
2018-05-06T20:27:24.803Z,61.5
2018-05-06T20:32:36.719Z,61.3
2018-05-06T20:37:36.422Z,61
2018-05-06T20:42:36.437Z,62.4
2018-05-06T20:47:36.634Z,62.9
2018-05-06T20:52:36.447Z,63.7
2018-05-06T20:57:36.437Z,63.3
2018-05-06T21:02:36.722Z,64.9
2018-05-06T21:07:36.923Z,64.5
2018-05-06T21:12:36.701Z,64.9
2018-05-06T21:17:36.694Z,64.7
2018-05-06T21:22:36.722Z,66.4
2018-05-06T21:27:37.130Z,68.4
2018-05-06T21:32:38.709Z,67.6
2018-05-06T21:37:38.459Z,67.8
2018-05-06T21:42:49.531Z,66.2
2018-05-06T21:47:49.255Z,66.9
2018-05-06T21:52:49.297Z,67
2018-05-06T21:57:49.285Z,68.5
2018-05-06T22:02:49.507Z,68.3
2018-05-06T22:07:49.391Z,69.7
2018-05-06T22:12:49.420Z,70.2
2018-05-06T22:17:49.572Z,70.1
2018-05-06T22:22:49.513Z,70
2018-05-06T22:28:01.270Z,72
2018-05-06T22:33:01.132Z,71.4
2018-05-06T22:38:00.985Z,71.5
2018-05-06T22:43:01.008Z,71.1
2018-05-06T22:48:00.939Z,71.8
2018-05-06T22:53:01.665Z,72.2
2018-05-06T22:58:01.417Z,71.8
2018-05-06T23:03:01.498Z,70.4
2018-05-06T23:08:01.420Z,70.3
2018-05-06T23:13:01.460Z,71.4
2018-05-06T23:18:01.461Z,71.1
2018-05-06T23:23:01.455Z,71.9
2018-05-06T23:28:01.509Z,72.2
2018-05-06T23:33:01.750Z,72
2018-05-06T23:38:13.595Z,72.7
2018-05-06T23:43:13.329Z,72.6
2018-05-06T23:48:13.312Z,72
2018-05-06T23:53:13.322Z,72.7
2018-05-06T23:58:13.364Z,73
